createdAt,value
2019-01-09T00:00:45.150Z,95.60
2019-01-09T00:01:45.123Z,95.70
2019-01-09T00:02:45.137Z,95.45
2019-01-09T00:03:45.103Z,96.28
2019-01-09T00:04:45.093Z,96.01
2019-01-09T00:05:45.086Z,95.91
2019-01-09T00:06:45.103Z,95.70
2019-01-09T00:07:45.101Z,95.66
2019-01-09T00:08:45.066Z,95.60
2019-01-09T00:09:45.041Z,95.97
2019-01-09T00:10:45.031Z,95.70
2019-01-09T00:11:45.025Z,95.29
2019-01-09T00:12:45.012Z,95.45
2019-01-09T00:13:45.003Z,95.70
2019-01-09T00:14:44.975Z,95.76
2019-01-09T00:15:44.970Z,95.56
2019-01-09T00:16:44.964Z,95.56
2019-01-09T00:17:44.945Z,95.60
2019-01-09T00:18:44.954Z,95.45
2019-01-09T00:19:44.925Z,95.45
2019-01-09T00:20:44.917Z,95.39
2019-01-09T00:21:44.915Z,95.35
2019-01-09T00:22:44.887Z,94.51
2019-01-09T00:23:44.913Z,94.98
2019-01-09T00:24:44.873Z,94.31
2019-01-09T00:25:44.861Z,95.39
2019-01-09T00:26:44.845Z,95.25
2019-01-09T00:27:44.837Z,94.62
2019-01-09T00:28:44.872Z,95.29
2019-01-09T00:29:44.831Z,94.93
2019-01-09T00:30:44.804Z,94.76
2019-01-09T00:31:44.796Z,94.41
2019-01-09T00:32:44.793Z,94.51
2019-01-09T00:33:44.807Z,94.41
2019-01-09T00:34:44.768Z,94.10
2019-01-09T00:35:44.762Z,94.14
2019-01-09T00:36:44.749Z,93.89
2019-01-09T00:37:44.737Z,93.79
2019-01-09T00:38:44.762Z,94.62
2019-01-09T00:39:44.719Z,94.41
2019-01-09T00:40:44.710Z,94.66
2019-01-09T00:41:44.688Z,94.41
2019-01-09T00:42:44.682Z,94.62
2019-01-09T00:43:44.685Z,94.56
2019-01-09T00:45:12.194Z,94.62
2019-01-09T00:45:45.700Z,94.31
2019-01-09T00:46:44.657Z,93.99
2019-01-09T00:47:44.627Z,94.04
2019-01-09T00:48:44.639Z,94.41
2019-01-09T00:49:44.628Z,94.41
2019-01-09T00:50:44.601Z,94.20
2019-01-09T00:51:44.584Z,94.56
2019-01-09T00:52:44.595Z,93.79
2019-01-09T00:53:44.565Z,93.83
2019-01-09T00:54:44.596Z,94.31
2019-01-09T00:55:44.539Z,93.99
2019-01-09T00:56:44.537Z,93.99
2019-01-09T00:57:44.528Z,94.04
2019-01-09T00:58:44.522Z,94.24
2019-01-09T00:59:44.535Z,94.14
2019-01-09T01:00:44.496Z,94.31
2019-01-09T01:01:44.559Z,93.93
2019-01-09T01:02:44.471Z,94.51
2019-01-09T01:03:44.462Z,94.45
2019-01-09T01:04:44.472Z,93.99
2019-01-09T01:05:46.160Z,94.45
2019-01-09T01:06:44.421Z,94.45
2019-01-09T01:07:44.413Z,94.24
2019-01-09T01:08:44.404Z,94.04
2019-01-09T01:09:44.407Z,93.79
2019-01-09T01:10:44.401Z,93.58
2019-01-09T01:11:44.368Z,94.04
2019-01-09T01:12:44.358Z,94.51
2019-01-09T01:13:44.349Z,94.35
2019-01-09T01:14:44.364Z,94.14
2019-01-09T01:15:44.330Z,93.79
2019-01-09T01:16:44.336Z,94.41
2019-01-09T01:17:44.306Z,94.45
2019-01-09T01:18:44.291Z,94.66
2019-01-09T01:19:44.307Z,93.99
2019-01-09T01:20:44.280Z,93.93
2019-01-09T01:21:44.267Z,94.04
2019-01-09T01:22:44.258Z,93.73
2019-01-09T01:23:44.242Z,94.24
2019-01-09T01:24:44.257Z,93.99
2019-01-09T01:25:44.222Z,93.79
2019-01-09T01:26:44.216Z,93.41
2019-01-09T01:27:44.195Z,94.10
2019-01-09T01:28:44.185Z,94.04
2019-01-09T01:29:44.203Z,93.62
2019-01-09T01:30:44.179Z,93.68
2019-01-09T01:31:44.154Z,93.52
2019-01-09T01:32:44.153Z,93.41
2019-01-09T01:33:44.146Z,93.62
2019-01-09T01:34:44.157Z,93.62
2019-01-09T01:35:44.115Z,93.52
2019-01-09T01:36:44.108Z,93.83
2019-01-09T01:37:44.094Z,93.83
2019-01-09T01:38:44.094Z,93.93
2019-01-09T01:39:44.076Z,94.41
2019-01-09T01:40:44.083Z,94.24
2019-01-09T01:41:44.050Z,94.14
2019-01-09T01:42:44.054Z,94.45
2019-01-09T01:43:44.029Z,94.56
2019-01-09T01:44:44.026Z,94.66
2019-01-09T01:45:44.032Z,94.45
2019-01-09T01:46:43.997Z,94.24
2019-01-09T01:47:43.989Z,94.45
2019-01-09T01:48:43.974Z,94.76
2019-01-09T01:49:43.972Z,94.24
2019-01-09T01:50:43.974Z,94.56
2019-01-09T01:51:43.945Z,94.56
2019-01-09T01:52:43.934Z,94.76
2019-01-09T01:53:43.921Z,94.76
2019-01-09T01:54:43.911Z,94.56
2019-01-09T01:55:43.929Z,94.56
2019-01-09T01:56:43.892Z,94.56
2019-01-09T01:57:43.885Z,93.93
2019-01-09T01:58:43.876Z,94.35
2019-01-09T01:59:43.866Z,93.62
2019-01-09T02:00:43.898Z,93.52
2019-01-09T02:01:43.841Z,93.73
2019-01-09T02:02:43.828Z,93.93
2019-01-09T02:03:43.822Z,94.66
2019-01-09T02:04:43.819Z,94.56
2019-01-09T02:05:43.822Z,94.87
2019-01-09T02:06:43.788Z,94.87
2019-01-09T02:07:43.781Z,94.87
2019-01-09T02:08:43.768Z,94.66
2019-01-09T02:09:43.758Z,94.45
2019-01-09T02:10:43.764Z,93.93
2019-01-09T02:11:43.736Z,94.35
2019-01-09T02:12:43.722Z,93.52
2019-01-09T02:13:43.728Z,94.04
2019-01-09T02:14:43.701Z,94.45
2019-01-09T02:15:43.714Z,94.45
2019-01-09T02:16:43.684Z,93.83
2019-01-09T02:17:43.670Z,94.35
2019-01-09T02:18:43.659Z,94.45
2019-01-09T02:19:43.644Z,93.83
2019-01-09T02:20:43.684Z,94.14
2019-01-09T02:21:43.626Z,94.49
2019-01-09T02:22:43.624Z,94.04
2019-01-09T02:23:43.605Z,93.62
2019-01-09T02:24:43.611Z,93.62
2019-01-09T02:25:43.583Z,93.56
2019-01-09T02:26:43.593Z,94.18
2019-01-09T02:27:43.565Z,94.18
2019-01-09T02:28:43.563Z,94.35
2019-01-09T02:29:43.544Z,94.04
2019-01-09T02:30:43.536Z,94.18
2019-01-09T02:31:43.554Z,94.35
2019-01-09T02:32:43.515Z,94.60
2019-01-09T02:33:43.496Z,94.60
2019-01-09T02:34:43.494Z,94.39
2019-01-09T02:35:43.477Z,94.49
2019-01-09T02:36:43.473Z,94.49
2019-01-09T02:37:43.483Z,94.81
2019-01-09T02:38:43.451Z,94.49
2019-01-09T02:39:43.435Z,94.81
2019-01-09T02:40:43.431Z,95.18
2019-01-09T02:41:43.418Z,94.49
2019-01-09T02:42:43.434Z,94.39
2019-01-09T02:43:43.402Z,94.49
2019-01-09T02:44:43.387Z,94.49
2019-01-09T02:45:43.386Z,94.70
2019-01-09T02:46:43.370Z,94.29
2019-01-09T02:47:43.412Z,94.29
2019-01-09T02:48:43.346Z,94.18
2019-01-09T02:49:43.335Z,94.18
2019-01-09T02:50:43.324Z,94.49
2019-01-09T02:51:43.332Z,94.39
2019-01-09T02:52:43.296Z,93.98
2019-01-09T02:53:43.307Z,94.49
2019-01-09T02:54:43.275Z,94.18
2019-01-09T02:55:43.272Z,94.18
2019-01-09T02:56:43.254Z,94.60
2019-01-09T02:57:43.247Z,94.08
2019-01-09T02:58:43.270Z,94.49
2019-01-09T02:59:43.228Z,94.49
2019-01-09T03:00:43.224Z,94.49
2019-01-09T03:01:43.224Z,94.18
2019-01-09T03:02:43.193Z,94.39
2019-01-09T03:03:43.184Z,94.60
2019-01-09T03:04:43.184Z,94.70
2019-01-09T03:05:43.170Z,94.56
2019-01-09T03:06:43.172Z,94.04
2019-01-09T03:07:43.144Z,94.24
2019-01-09T03:08:43.130Z,94.35
2019-01-09T03:09:43.149Z,93.87
2019-01-09T03:10:43.112Z,94.24
2019-01-09T03:11:43.106Z,93.93
2019-01-09T03:12:52.258Z,93.87
2019-01-09T03:13:43.074Z,94.49
2019-01-09T03:14:43.106Z,94.18
2019-01-09T03:15:43.052Z,94.29
2019-01-09T03:16:43.054Z,94.04
2019-01-09T03:17:43.056Z,94.08
2019-01-09T03:18:43.023Z,94.35
2019-01-09T03:19:43.016Z,93.35
2019-01-09T03:20:43.013Z,93.46
2019-01-09T03:21:42.991Z,93.77
2019-01-09T03:22:43.003Z,93.66
2019-01-09T03:23:42.972Z,93.98
2019-01-09T03:24:42.958Z,93.56
2019-01-09T03:25:42.970Z,93.87
2019-01-09T03:26:42.944Z,93.77
2019-01-09T03:27:42.928Z,93.98
2019-01-09T03:28:42.922Z,93.98
2019-01-09T03:29:42.904Z,94.29
2019-01-09T03:30:42.942Z,94.39
2019-01-09T03:31:42.888Z,94.29
2019-01-09T03:32:42.908Z,94.18
2019-01-09T03:33:42.868Z,93.56
2019-01-09T03:34:42.864Z,93.66
2019-01-09T03:35:42.847Z,93.98
2019-01-09T03:36:42.858Z,93.66
2019-01-09T03:37:42.827Z,93.66
2019-01-09T03:38:42.812Z,93.87
2019-01-09T03:39:42.823Z,93.56
2019-01-09T03:40:42.788Z,93.87
2019-01-09T03:41:42.804Z,93.87
2019-01-09T03:42:42.875Z,94.08
2019-01-09T03:43:42.770Z,93.98
2019-01-09T03:44:42.746Z,94.18
2019-01-09T03:45:42.746Z,93.98
2019-01-09T03:46:42.749Z,93.66
2019-01-09T03:47:42.760Z,93.24
2019-01-09T03:48:42.706Z,93.35
2019-01-09T03:49:42.783Z,93.56
2019-01-09T03:50:42.688Z,93.66
2019-01-09T03:51:42.678Z,93.77
2019-01-09T03:52:42.727Z,93.46
2019-01-09T03:53:42.651Z,93.46
2019-01-09T03:54:42.662Z,93.77
2019-01-09T03:55:42.651Z,93.73
2019-01-09T03:56:42.619Z,94.18
2019-01-09T03:57:42.654Z,93.98
2019-01-09T03:58:42.596Z,93.66
2019-01-09T03:59:42.590Z,93.93
2019-01-09T04:00:42.585Z,93.20
2019-01-09T04:01:42.593Z,92.99
2019-01-09T04:02:42.582Z,93.46
2019-01-09T04:03:42.643Z,93.31
2019-01-09T04:04:42.545Z,93.24
2019-01-09T04:05:42.555Z,93.24
2019-01-09T04:06:42.622Z,93.24
2019-01-09T04:07:42.565Z,93.24
2019-01-09T04:08:42.568Z,93.46
2019-01-09T04:09:42.517Z,93.31
2019-01-09T04:10:42.473Z,92.83
2019-01-09T04:11:42.478Z,93.04
2019-01-09T04:12:42.463Z,93.87
2019-01-09T04:13:42.509Z,93.14
2019-01-09T04:14:42.446Z,92.62
2019-01-09T04:15:42.421Z,92.41
2019-01-09T04:16:42.410Z,92.52
2019-01-09T04:17:42.397Z,93.24
2019-01-09T04:18:42.416Z,93.56
2019-01-09T04:19:42.378Z,93.04
2019-01-09T04:20:42.372Z,93.24
2019-01-09T04:21:42.376Z,93.46
2019-01-09T04:22:42.358Z,93.14
2019-01-09T04:23:42.359Z,93.04
2019-01-09T04:24:42.325Z,93.24
2019-01-09T04:25:42.316Z,92.72
2019-01-09T04:26:42.315Z,93.04
2019-01-09T04:27:42.296Z,93.77
2019-01-09T04:28:42.307Z,92.93
2019-01-09T04:29:42.285Z,93.04
2019-01-09T04:30:42.264Z,92.93
2019-01-09T04:31:42.259Z,93.56
2019-01-09T04:32:42.239Z,93.66
2019-01-09T04:33:42.243Z,93.46
2019-01-09T04:34:42.229Z,93.66
2019-01-09T04:35:42.210Z,92.83
2019-01-09T04:36:51.106Z,93.04
2019-01-09T04:37:43.181Z,93.14
2019-01-09T04:38:42.209Z,93.31
2019-01-09T04:39:42.175Z,93.24
2019-01-09T04:40:42.172Z,92.93
2019-01-09T04:41:42.151Z,93.14
2019-01-09T04:42:42.134Z,92.99
2019-01-09T04:43:42.139Z,93.66
2019-01-09T04:44:42.112Z,93.04
2019-01-09T04:45:42.106Z,93.14
2019-01-09T04:46:42.086Z,93.35
2019-01-09T04:47:42.103Z,93.14
2019-01-09T04:48:50.356Z,92.89
2019-01-09T04:49:42.071Z,93.31
2019-01-09T04:50:51.326Z,93.14
2019-01-09T04:51:42.039Z,93.24
2019-01-09T04:52:42.031Z,92.31
2019-01-09T04:53:42.073Z,92.68
2019-01-09T04:54:42.076Z,92.47
2019-01-09T04:55:42.018Z,92.62
2019-01-09T04:56:41.990Z,92.62
2019-01-09T04:57:41.983Z,93.14
2019-01-09T04:58:41.963Z,92.62
2019-01-09T04:59:42.015Z,93.04
2019-01-09T05:00:41.955Z,93.24
2019-01-09T05:01:41.929Z,93.35
2019-01-09T05:02:41.919Z,92.83
2019-01-09T05:03:41.910Z,93.35
2019-01-09T05:04:41.941Z,93.24
2019-01-09T05:05:41.889Z,93.35
2019-01-09T05:06:41.895Z,93.24
2019-01-09T05:07:41.867Z,93.35
2019-01-09T05:08:41.863Z,93.04
2019-01-09T05:09:41.865Z,93.24
2019-01-09T05:10:41.844Z,92.93
2019-01-09T05:11:41.828Z,93.04
2019-01-09T05:12:41.828Z,93.04
2019-01-09T05:13:41.802Z,93.66
2019-01-09T05:14:41.810Z,93.14
2019-01-09T05:15:41.807Z,93.24
2019-01-09T05:16:41.782Z,92.72
2019-01-09T05:17:41.776Z,93.24
2019-01-09T05:18:41.760Z,92.83
2019-01-09T05:19:41.777Z,92.93
2019-01-09T05:20:41.727Z,93.14
2019-01-09T05:21:41.716Z,93.04
2019-01-09T05:22:41.705Z,93.35
2019-01-09T05:23:41.707Z,93.04
2019-01-09T05:24:41.717Z,93.46
2019-01-09T05:25:41.688Z,93.14
2019-01-09T05:26:41.692Z,92.93
2019-01-09T05:27:41.660Z,93.24
2019-01-09T05:28:41.644Z,93.35
2019-01-09T05:29:41.684Z,93.14
2019-01-09T05:30:41.621Z,93.24
2019-01-09T05:31:41.611Z,92.00
2019-01-09T05:32:41.601Z,92.21
2019-01-09T05:33:41.607Z,92.52
2019-01-09T05:34:41.610Z,92.41
2019-01-09T05:35:41.581Z,92.31
2019-01-09T05:36:41.557Z,92.52
2019-01-09T05:37:41.549Z,92.10
2019-01-09T05:38:41.537Z,92.00
2019-01-09T05:39:41.546Z,92.83
2019-01-09T05:40:41.522Z,92.41
2019-01-09T05:41:41.507Z,92.21
2019-01-09T05:42:41.491Z,92.41
2019-01-09T05:43:41.503Z,91.89
2019-01-09T05:44:41.493Z,93.04
2019-01-09T05:45:41.466Z,92.31
2019-01-09T05:46:41.467Z,92.41
2019-01-09T05:47:41.459Z,93.04
2019-01-09T05:48:41.435Z,92.21
2019-01-09T05:49:41.452Z,92.10
2019-01-09T05:50:41.415Z,92.21
2019-01-09T05:51:41.409Z,92.93
2019-01-09T05:52:41.419Z,93.14
2019-01-09T05:53:41.396Z,92.41
2019-01-09T05:54:41.656Z,92.41
2019-01-09T05:55:41.356Z,92.31
2019-01-09T05:56:41.354Z,92.31
2019-01-09T05:57:41.345Z,92.72
2019-01-09T05:58:41.331Z,93.24
2019-01-09T05:59:41.318Z,92.62
2019-01-09T06:00:41.335Z,92.31
2019-01-09T06:01:41.293Z,92.52
2019-01-09T06:02:41.293Z,92.31
2019-01-09T06:03:41.272Z,92.00
2019-01-09T06:04:41.265Z,92.10
2019-01-09T06:05:41.280Z,92.99
2019-01-09T06:06:41.249Z,93.04
2019-01-09T06:07:41.233Z,92.52
2019-01-09T06:08:41.221Z,92.31
2019-01-09T06:09:41.211Z,92.21
2019-01-09T06:10:41.217Z,93.24
2019-01-09T06:11:41.193Z,93.24
2019-01-09T06:12:41.178Z,93.24
2019-01-09T06:13:41.169Z,93.35
2019-01-09T06:14:41.153Z,93.10
2019-01-09T06:15:41.166Z,93.46
2019-01-09T06:16:41.635Z,93.24
2019-01-09T06:17:41.128Z,93.46
2019-01-09T06:18:41.117Z,94.18
2019-01-09T06:19:41.103Z,93.77
2019-01-09T06:20:41.117Z,93.87
2019-01-09T06:21:41.087Z,94.29
2019-01-09T06:22:41.088Z,94.08
2019-01-09T06:23:41.725Z,94.70
2019-01-09T06:24:41.052Z,94.49
2019-01-09T06:25:41.045Z,94.39
2019-01-09T06:26:41.076Z,94.49
2019-01-09T06:27:41.025Z,94.43
2019-01-09T06:28:41.013Z,94.33
2019-01-09T06:29:40.991Z,94.49
2019-01-09T06:30:40.989Z,94.96
2019-01-09T06:31:40.991Z,94.85
2019-01-09T06:32:40.965Z,94.96
2019-01-09T06:33:40.961Z,94.85
2019-01-09T06:34:40.943Z,95.58
2019-01-09T06:35:40.939Z,95.68
2019-01-09T06:36:40.962Z,95.48
2019-01-09T06:37:40.915Z,95.48
2019-01-09T06:38:40.906Z,95.17
2019-01-09T06:39:40.903Z,95.68
2019-01-09T06:40:40.885Z,95.79
2019-01-09T06:41:41.047Z,95.83
2019-01-09T06:42:40.869Z,95.83
2019-01-09T06:43:40.859Z,96.04
2019-01-09T06:44:40.839Z,96.00
2019-01-09T06:45:40.830Z,95.94
2019-01-09T06:46:40.845Z,95.79
2019-01-09T06:47:40.814Z,96.00
2019-01-09T06:48:40.794Z,96.04
2019-01-09T06:49:40.791Z,96.04
2019-01-09T06:50:40.777Z,95.89
2019-01-09T06:51:40.869Z,95.89
2019-01-09T06:52:40.807Z,95.83
2019-01-09T06:53:40.762Z,95.83
2019-01-09T06:54:40.763Z,95.94
2019-01-09T06:55:40.724Z,95.83
2019-01-09T06:56:40.713Z,95.62
2019-01-09T06:57:40.726Z,96.46
2019-01-09T06:58:40.691Z,96.56
2019-01-09T06:59:40.677Z,96.56
2019-01-09T07:00:40.671Z,96.67
2019-01-09T07:01:40.659Z,96.36
2019-01-09T07:02:40.669Z,96.46
2019-01-09T07:03:40.639Z,96.46
2019-01-09T07:04:40.636Z,96.15
2019-01-09T07:05:40.615Z,96.77
2019-01-09T07:06:40.603Z,96.46
2019-01-09T07:07:40.638Z,96.25
2019-01-09T07:08:40.589Z,96.36
2019-01-09T07:09:40.571Z,96.46
2019-01-09T07:10:40.563Z,96.15
2019-01-09T07:11:40.571Z,96.36
2019-01-09T07:12:40.561Z,95.83
2019-01-09T07:13:40.538Z,96.04
2019-01-09T07:14:40.531Z,95.83
2019-01-09T07:15:40.523Z,95.79
2019-01-09T07:16:40.560Z,96.00
2019-01-09T07:17:40.509Z,96.04
2019-01-09T07:18:40.518Z,96.15
2019-01-09T07:19:40.468Z,96.15
2019-01-09T07:20:40.538Z,96.46
2019-01-09T07:21:45.523Z,96.56
2019-01-09T07:22:41.466Z,95.94
2019-01-09T07:23:40.433Z,96.52
2019-01-09T07:24:40.413Z,95.83
2019-01-09T07:25:40.407Z,95.94
2019-01-09T07:26:40.401Z,95.68
2019-01-09T07:27:40.523Z,95.58
2019-01-09T07:28:41.771Z,95.68
2019-01-09T07:29:40.360Z,95.10
2019-01-09T07:30:40.358Z,95.06
2019-01-09T07:31:40.389Z,96.00
2019-01-09T07:32:40.401Z,95.83
2019-01-09T07:33:42.472Z,96.11
2019-01-09T07:34:40.424Z,95.83
2019-01-09T07:35:40.320Z,95.42
2019-01-09T07:36:40.281Z,95.52
2019-01-09T07:37:44.960Z,95.83
2019-01-09T07:38:41.293Z,96.04
2019-01-09T07:39:40.263Z,95.73
2019-01-09T07:40:40.259Z,95.83
2019-01-09T07:41:40.229Z,96.67
2019-01-09T07:42:40.222Z,96.36
2019-01-09T07:43:40.207Z,96.25
2019-01-09T07:44:40.239Z,95.67
2019-01-09T07:45:40.195Z,96.46
2019-01-09T07:46:40.192Z,96.71
2019-01-09T07:47:40.201Z,96.56
2019-01-09T07:48:40.167Z,96.36
2019-01-09T07:49:40.166Z,96.98
2019-01-09T07:50:40.153Z,96.56
2019-01-09T07:51:40.125Z,96.77
2019-01-09T07:52:40.116Z,96.67
2019-01-09T07:53:40.109Z,96.36
2019-01-09T07:54:40.121Z,96.88
2019-01-09T07:55:40.081Z,96.36
2019-01-09T07:56:40.075Z,96.46
2019-01-09T07:57:40.079Z,96.56
2019-01-09T07:58:40.047Z,96.77
2019-01-09T07:59:40.045Z,96.46
2019-01-09T08:00:40.025Z,96.56
2019-01-09T08:01:40.017Z,96.36
2019-01-09T08:02:40.021Z,96.56
2019-01-09T08:03:40.001Z,96.56
2019-01-09T08:04:39.989Z,96.67
2019-01-09T08:05:39.997Z,96.25
2019-01-09T08:06:39.968Z,96.36
2019-01-09T08:07:39.976Z,96.56
2019-01-09T08:08:40.036Z,95.83
2019-01-09T08:09:39.941Z,96.67
2019-01-09T08:10:39.923Z,95.79
2019-01-09T08:11:39.934Z,95.68
2019-01-09T08:12:39.900Z,95.27
2019-01-09T08:13:39.916Z,96.11
2019-01-09T08:14:39.882Z,95.79
2019-01-09T08:15:39.892Z,95.42
2019-01-09T08:16:39.888Z,95.79
2019-01-09T08:17:39.859Z,95.79
2019-01-09T08:18:39.851Z,95.73
2019-01-09T08:19:39.824Z,95.89
2019-01-09T08:20:39.815Z,95.83
2019-01-09T08:21:39.804Z,95.83
2019-01-09T08:22:39.819Z,95.42
2019-01-09T08:23:39.779Z,95.06
2019-01-09T08:24:39.774Z,95.52
2019-01-09T08:25:39.762Z,95.58
2019-01-09T08:26:39.752Z,95.31
2019-01-09T08:27:39.761Z,95.83
2019-01-09T08:28:39.731Z,95.83
2019-01-09T08:29:39.725Z,95.31
2019-01-09T08:30:39.722Z,95.52
2019-01-09T08:31:39.698Z,95.31
2019-01-09T08:32:39.701Z,95.62
2019-01-09T08:33:39.674Z,95.73
2019-01-09T08:34:39.677Z,95.83
2019-01-09T08:35:39.665Z,96.77
2019-01-09T08:36:39.647Z,95.52
2019-01-09T08:37:39.659Z,95.94
2019-01-09T08:38:39.645Z,95.83
2019-01-09T08:39:39.613Z,95.73
2019-01-09T08:40:39.617Z,95.83
2019-01-09T08:41:39.600Z,95.83
2019-01-09T08:42:39.583Z,95.73
2019-01-09T08:43:39.610Z,95.83
2019-01-09T08:44:39.565Z,95.73
2019-01-09T08:45:39.560Z,96.04
2019-01-09T08:46:39.541Z,95.52
2019-01-09T08:47:39.533Z,96.04
2019-01-09T08:48:39.538Z,95.83
2019-01-09T08:49:39.512Z,95.52
2019-01-09T08:50:39.495Z,96.15
2019-01-09T08:51:39.501Z,95.83
2019-01-09T08:52:39.477Z,95.62
2019-01-09T08:53:39.505Z,95.42
2019-01-09T08:54:39.458Z,95.94
2019-01-09T08:55:39.453Z,95.62
2019-01-09T08:56:39.446Z,95.31
2019-01-09T08:57:39.439Z,95.73
2019-01-09T08:58:39.417Z,95.17
2019-01-09T08:59:39.439Z,95.42
2019-01-09T09:00:39.388Z,95.62
2019-01-09T09:01:39.377Z,95.31
2019-01-09T09:02:39.386Z,95.83
2019-01-09T09:03:39.366Z,95.52
2019-01-09T09:04:39.374Z,95.62
2019-01-09T09:05:39.349Z,95.62
2019-01-09T09:06:39.332Z,95.31
2019-01-09T09:07:39.677Z,95.21
2019-01-09T09:08:39.309Z,95.73
2019-01-09T09:09:39.321Z,95.83
2019-01-09T09:10:39.285Z,95.06
2019-01-09T09:11:39.279Z,95.31
2019-01-09T09:12:39.260Z,94.69
2019-01-09T09:13:39.247Z,94.85
2019-01-09T09:14:39.278Z,95.31
2019-01-09T09:15:39.243Z,95.68
2019-01-09T09:16:39.218Z,95.62
2019-01-09T09:17:39.219Z,95.42
2019-01-09T09:18:39.230Z,95.73
2019-01-09T09:19:39.186Z,95.62
2019-01-09T09:20:39.195Z,95.73
2019-01-09T09:21:39.172Z,95.83
2019-01-09T09:22:39.276Z,96.04
2019-01-09T09:23:39.160Z,95.94
2019-01-09T09:24:39.140Z,95.42
2019-01-09T09:25:39.166Z,95.52
2019-01-09T09:26:39.123Z,95.37
2019-01-09T09:27:39.109Z,95.27
2019-01-09T09:28:39.094Z,95.58
2019-01-09T09:29:39.142Z,95.58
2019-01-09T09:30:39.111Z,95.68
2019-01-09T09:31:39.069Z,95.89
2019-01-09T09:32:39.056Z,95.68
2019-01-09T09:33:39.039Z,95.31
2019-01-09T09:34:39.052Z,95.58
2019-01-09T09:35:39.045Z,95.68
2019-01-09T09:36:39.012Z,95.58
2019-01-09T09:37:39.004Z,95.48
2019-01-09T09:38:39.000Z,95.48
2019-01-09T09:39:38.980Z,95.27
2019-01-09T09:40:39.033Z,95.48
2019-01-09T09:41:38.956Z,95.48
2019-01-09T09:42:38.946Z,95.17
2019-01-09T09:43:38.946Z,95.48
2019-01-09T09:44:38.927Z,95.37
2019-01-09T09:45:38.933Z,95.79
2019-01-09T09:46:38.903Z,95.43
2019-01-09T09:47:38.899Z,95.37
2019-01-09T09:48:38.884Z,95.23
2019-01-09T09:49:38.876Z,95.12
2019-01-09T09:50:38.881Z,95.33
2019-01-09T09:51:38.849Z,95.43
2019-01-09T09:52:38.835Z,94.49
2019-01-09T09:53:38.830Z,94.49
2019-01-09T09:54:38.826Z,94.60
2019-01-09T09:55:38.825Z,93.98
2019-01-09T09:56:38.794Z,94.81
2019-01-09T09:57:38.786Z,94.70
2019-01-09T09:58:38.874Z,94.39
2019-01-09T09:59:38.783Z,94.49
2019-01-09T10:00:38.804Z,93.77
2019-01-09T10:01:38.780Z,94.49
2019-01-09T10:02:38.731Z,94.49
2019-01-09T10:03:38.731Z,94.29
2019-01-09T10:04:38.713Z,94.29
2019-01-09T10:05:38.698Z,94.60
2019-01-09T10:06:38.704Z,94.70
2019-01-09T10:07:38.698Z,94.39
2019-01-09T10:08:38.683Z,94.60
2019-01-09T10:09:38.658Z,94.18
2019-01-09T10:10:39.389Z,94.18
2019-01-09T10:11:38.654Z,94.08
2019-01-09T10:12:38.631Z,94.14
2019-01-09T10:13:38.633Z,93.24
2019-01-09T10:14:38.605Z,94.08
2019-01-09T10:15:38.609Z,94.18
2019-01-09T10:16:38.606Z,94.49
2019-01-09T10:17:38.576Z,94.39
2019-01-09T10:18:38.570Z,94.24
2019-01-09T10:19:38.568Z,94.18
2019-01-09T10:20:38.542Z,93.77
2019-01-09T10:21:38.558Z,94.18
2019-01-09T10:22:38.519Z,93.66
2019-01-09T10:23:38.519Z,94.14
2019-01-09T10:24:38.519Z,94.45
2019-01-09T10:25:38.517Z,93.83
2019-01-09T10:26:38.520Z,93.66
2019-01-09T10:27:38.474Z,93.93
2019-01-09T10:28:38.473Z,93.83
2019-01-09T10:29:38.462Z,93.73
2019-01-09T10:30:38.541Z,94.04
2019-01-09T10:31:38.476Z,94.04
2019-01-09T10:32:38.412Z,94.35
2019-01-09T10:33:38.404Z,94.45
2019-01-09T10:34:38.394Z,94.35
2019-01-09T10:35:38.396Z,93.31
2019-01-09T10:36:38.399Z,94.04
2019-01-09T10:37:38.365Z,94.04
2019-01-09T10:38:38.498Z,94.04
2019-01-09T10:39:38.354Z,94.56
2019-01-09T10:40:38.325Z,94.04
2019-01-09T10:41:38.367Z,93.41
2019-01-09T10:42:38.306Z,93.62
2019-01-09T10:43:38.304Z,93.52
2019-01-09T10:44:38.291Z,93.73
2019-01-09T10:45:38.283Z,93.93
2019-01-09T10:46:38.294Z,94.04
2019-01-09T10:47:38.268Z,93.83
2019-01-09T10:48:38.264Z,93.41
2019-01-09T10:49:38.234Z,93.83
2019-01-09T10:50:38.220Z,93.10
2019-01-09T10:51:38.255Z,93.93
2019-01-09T10:52:38.313Z,93.83
2019-01-09T10:53:38.204Z,93.83
2019-01-09T10:54:38.175Z,93.73
2019-01-09T10:55:38.171Z,93.10
2019-01-09T10:56:38.182Z,93.31
2019-01-09T10:57:38.148Z,93.27
2019-01-09T10:58:38.222Z,93.31
2019-01-09T10:59:38.155Z,93.41
2019-01-09T11:00:38.123Z,92.99
2019-01-09T11:01:38.162Z,93.31
2019-01-09T11:02:38.103Z,93.20
2019-01-09T11:03:38.087Z,93.05
2019-01-09T11:04:38.091Z,93.31
2019-01-09T11:05:38.073Z,92.79
2019-01-09T11:06:38.102Z,93.20
2019-01-09T11:07:38.050Z,93.20
2019-01-09T11:08:46.682Z,93.31
2019-01-09T11:09:39.020Z,93.31
2019-01-09T11:10:38.020Z,93.16
2019-01-09T11:11:38.009Z,93.41
2019-01-09T11:12:38.037Z,93.48
2019-01-09T11:13:37.981Z,92.89
2019-01-09T11:14:37.974Z,92.95
2019-01-09T11:15:37.983Z,92.79
2019-01-09T11:16:37.964Z,92.54
2019-01-09T11:17:37.979Z,93.27
2019-01-09T11:18:37.929Z,93.05
2019-01-09T11:19:37.918Z,93.27
2019-01-09T11:20:37.906Z,92.85
2019-01-09T11:21:37.900Z,92.95
2019-01-09T11:22:37.902Z,92.12
2019-01-09T11:23:37.875Z,92.22
2019-01-09T11:24:37.867Z,92.12
2019-01-09T11:25:37.854Z,92.54
2019-01-09T11:26:37.842Z,92.12
2019-01-09T11:27:37.940Z,92.22
2019-01-09T11:28:37.826Z,92.43
2019-01-09T11:29:37.859Z,91.60
2019-01-09T11:30:37.794Z,91.50
2019-01-09T11:31:37.791Z,91.77
2019-01-09T11:32:37.806Z,91.39
2019-01-09T11:33:37.833Z,90.93
2019-01-09T11:34:37.824Z,91.60
2019-01-09T11:35:37.747Z,91.25
2019-01-09T11:36:37.743Z,91.46
2019-01-09T11:37:37.759Z,91.25
2019-01-09T11:38:37.723Z,91.28
2019-01-09T11:39:37.764Z,91.35
2019-01-09T11:40:37.752Z,91.46
2019-01-09T11:41:37.690Z,91.60
2019-01-09T11:42:37.693Z,90.97
2019-01-09T11:43:37.756Z,91.60
2019-01-09T11:44:37.655Z,91.35
2019-01-09T11:45:37.634Z,90.93
2019-01-09T11:46:37.630Z,91.56
2019-01-09T11:47:37.661Z,91.25
2019-01-09T11:48:37.700Z,91.35
2019-01-09T11:49:37.596Z,91.46
2019-01-09T11:50:37.591Z,91.10
2019-01-09T11:51:37.572Z,91.46
2019-01-09T11:52:37.612Z,91.46
2019-01-09T11:53:37.564Z,91.35
2019-01-09T11:54:37.564Z,91.46
2019-01-09T11:55:37.536Z,91.35
2019-01-09T11:56:37.525Z,91.35
2019-01-09T11:57:37.514Z,91.25
2019-01-09T11:58:37.561Z,90.83
2019-01-09T11:59:37.495Z,91.46
2019-01-09T12:00:37.482Z,90.62
2019-01-09T12:01:37.474Z,90.72
2019-01-09T12:02:37.460Z,91.18
2019-01-09T12:03:37.497Z,90.72
2019-01-09T12:04:37.438Z,90.83
2019-01-09T12:05:37.439Z,91.18
2019-01-09T12:06:37.413Z,91.50
2019-01-09T12:07:37.405Z,91.50
2019-01-09T12:08:37.418Z,91.25
2019-01-09T12:09:37.380Z,91.50
2019-01-09T12:10:37.384Z,91.35
2019-01-09T12:11:37.376Z,91.28
2019-01-09T12:12:37.356Z,91.56
2019-01-09T12:13:37.366Z,90.83
2019-01-09T12:14:37.402Z,91.35
2019-01-09T12:15:37.329Z,91.28
2019-01-09T12:16:37.343Z,91.60
2019-01-09T12:17:37.303Z,90.77
2019-01-09T12:18:37.356Z,90.87
2019-01-09T12:19:37.299Z,91.60
2019-01-09T12:20:37.270Z,91.18
2019-01-09T12:21:37.256Z,91.71
2019-01-09T12:22:37.257Z,91.91
2019-01-09T12:23:37.888Z,91.71
2019-01-09T12:24:37.223Z,92.33
2019-01-09T12:25:37.235Z,92.22
2019-01-09T12:26:37.210Z,92.43
2019-01-09T12:27:37.190Z,92.33
2019-01-09T12:28:37.210Z,92.12
2019-01-09T12:29:37.171Z,92.22
2019-01-09T12:30:37.171Z,93.20
2019-01-09T12:31:37.162Z,92.85
2019-01-09T12:32:37.151Z,92.68
2019-01-09T12:33:37.161Z,93.37
2019-01-09T12:34:37.124Z,92.95
2019-01-09T12:35:37.118Z,93.10
2019-01-09T12:36:37.115Z,93.05
2019-01-09T12:37:37.165Z,93.31
2019-01-09T12:38:37.084Z,92.54
2019-01-09T12:39:37.093Z,92.54
2019-01-09T12:40:37.069Z,92.02
2019-01-09T12:41:37.049Z,92.22
2019-01-09T12:42:37.059Z,92.22
2019-01-09T12:43:37.039Z,92.27
2019-01-09T12:44:37.027Z,92.74
2019-01-09T12:45:37.002Z,92.85
2019-01-09T12:46:36.995Z,92.89
2019-01-09T12:47:36.978Z,92.95
2019-01-09T12:48:36.991Z,93.31
2019-01-09T12:49:37.070Z,93.16
2019-01-09T12:50:36.949Z,93.37
2019-01-09T12:51:36.936Z,92.54
2019-01-09T12:52:36.925Z,92.85